Terlet Airfield

EHTL · Gelderland, 荷兰

罗盘
风向 的 Terlet Airfield 4C/22C
风: 0 kt, 0 beaufort


改变
0 1.000 2.000 3.000 4.000 5.000
SCT 300 ft
METAR EDLV 300620Z 00000KT 0400 R27/0450N FG SCT003 03/03 Q1023

METAR Terlet Airfield - EHTL

Terlet Airfield是,荷兰中的格利德菲尔德。 该机场有7条跑道: 4C/22C, 4L/22R, 4R/22L, 12/30, 14L/32R, 14R/32L 和 14/32. 该领域的国际民航组织标志是EHTL.

这份报告是针对2022年11月30日 07:20, 当地时间在Weeze Airport进行的。

机场观察

可变方向的风很小或没有风。

可见度为400 m。 跑道27的能见度为450 m 和 没有趋势。

有疏云,零星散落的云朵在300 ft的高度。 没有观察到天花板。

当前天气为多雾路段。 温度和风寒是3 °C。 露点为3 °C,相对湿度为100%。 海平面上的气压为1023 hPa (QNH)。

白天

今天,太阳从08:20升起,在16:29降落。 这适用于Terlet Airfield,世界夏令时可能有所不同。 当地时间与世界标准时间之间的时差为+1 小时。 当前,没有夏令时有效。

公司介绍

在这个机场,你可以找到滑翔机飞行俱乐部 和 飞行俱乐部。 这个机场上的公司有Vliegles.nl 和 Delftsche Studenten Aeroclub。

体会

在这个机场有飞行课程。 你可以在没有任何经验的情况下预订飞行课程。 在Terlet Airfield预订最多的飞行课程类型是Glider flying day course。 这些课程的价格从€ 149开始。 在这里阅读更多关于Glider flying day course的信息。你也可以在这个网站上进行预订。

警示语

跑道27处的能见度为450 m 和 没有趋势。

跑道

Id 标题 侧风 逆风 侧风 %
4C/22C 040°-220°
4L/22R 040°-220°
4R/22L 040°-220°
12/30 120°-300°
14L/32R 140°-320°
14R/32L 140°-320°
14/32 139°-319°

逆风成分最大的方向会被突出显示,并用于横风计算。 这并不一定意味着这个方向在使用。

乌云

300 ft SCT 疏云,零星散落的云朵

温度 & 天气

天气 多雾路段
温度 3 °C
露点 3 °C
相对湿度 100%
Kp-index 2 (0-9)

白天

日出
08:17 (20m)
中午
12:24
日落
16:30

小工具

你想在你的网站上有一个关于Terlet Airfield的当前航空天气(METAR)的小部件吗?

显示HTML代码

我们和第三方通过cookies跟踪您在我们网站上的互联网行为。如果你继续,我们认为你同意我们的饼干政策